createdAt,value
2019-04-07T00:01:49.284Z,18.53
2019-04-07T00:05:53.852Z,19.23
2019-04-07T00:09:58.415Z,19.37
2019-04-07T00:14:02.984Z,18.60
2019-04-07T00:18:07.779Z,18.00
2019-04-07T00:22:12.731Z,18.07
2019-04-07T00:26:17.969Z,18.53
2019-04-07T00:30:22.536Z,18.13
2019-04-07T00:34:27.597Z,18.17
2019-04-07T00:38:32.561Z,17.87
2019-04-07T00:42:38.108Z,17.50
2019-04-07T00:46:43.192Z,17.00
2019-04-07T00:50:48.126Z,18.40
2019-04-07T00:54:53.488Z,19.00
2019-04-07T00:58:58.150Z,17.30
2019-04-07T01:03:02.949Z,17.67
2019-04-07T01:07:08.092Z,18.30
2019-04-07T01:11:13.447Z,16.30
2019-04-07T01:15:18.584Z,20.60
2019-04-07T01:19:23.203Z,16.47
2019-04-07T01:23:28.230Z,18.60
2019-04-07T01:27:33.549Z,16.97
2019-04-07T01:31:38.283Z,18.37
2019-04-07T01:35:48.205Z,19.17
2019-04-07T01:39:49.223Z,18.17
2019-04-07T01:44:02.635Z,20.10
2019-04-07T01:48:23.477Z,20.37
2019-04-07T01:52:40.104Z,18.50
2019-04-07T01:57:10.254Z,17.63
2019-04-07T02:01:28.447Z,19.37
2019-04-07T02:05:59.148Z,18.33
2019-04-07T02:10:18.878Z,16.17
2019-04-07T02:14:51.276Z,18.97
2019-04-07T02:19:03.733Z,23.27
2019-04-07T02:23:21.284Z,16.30
2019-04-07T02:27:47.965Z,18.67
2019-04-07T02:32:17.444Z,16.80
2019-04-07T02:36:34.461Z,16.60
2019-04-07T02:40:55.740Z,15.93
2019-04-07T05:15:21.836Z,18.98
2019-04-07T05:19:26.377Z,17.15
2019-04-07T05:23:31.735Z,20.60
2019-04-07T05:27:36.540Z,21.30
2019-04-07T05:31:41.314Z,17.60
2019-04-07T05:35:45.980Z,18.82
2019-04-07T05:39:50.521Z,16.55
2019-04-07T05:43:55.752Z,20.82
2019-04-07T05:48:00.541Z,18.37
2019-04-07T05:52:05.857Z,19.10
2019-04-07T05:56:11.187Z,20.20
2019-04-07T06:00:16.903Z,20.95
2019-04-07T06:04:21.774Z,21.45
2019-04-07T06:08:32.555Z,21.00
2019-04-07T06:12:32.812Z,21.45
2019-04-07T06:16:37.803Z,21.62
2019-04-07T06:20:44.197Z,21.57
2019-04-07T06:24:51.673Z,21.87
2019-04-07T06:28:58.772Z,21.10
2019-04-07T06:33:05.506Z,21.17
2019-04-07T06:37:08.697Z,20.88
2019-04-07T06:41:13.799Z,21.52
2019-04-07T06:45:22.732Z,21.87
2019-04-07T06:49:44.678Z,21.27
2019-04-07T06:54:01.145Z,20.93
2019-04-07T06:58:27.560Z,21.60
2019-04-07T07:03:02.351Z,22.50
2019-04-07T07:07:24.922Z,22.50
2019-04-07T07:11:47.250Z,23.13
2019-04-07T07:16:15.794Z,22.93
2019-04-07T07:20:31.233Z,21.65
2019-04-07T07:24:35.782Z,21.73
2019-04-07T07:28:42.862Z,21.07
2019-04-07T07:32:47.250Z,21.23
2019-04-07T07:36:53.432Z,19.73
2019-04-07T07:41:00.997Z,20.10
2019-04-07T07:45:08.120Z,21.47
2019-04-07T07:49:11.432Z,20.50
2019-04-07T07:53:16.896Z,18.87
2019-04-07T07:57:23.733Z,17.30
2019-04-07T08:01:27.692Z,19.00
2019-04-07T08:05:33.521Z,18.20
2019-04-07T08:09:38.217Z,18.03
2019-04-07T08:13:44.961Z,19.23
2019-04-07T08:17:49.057Z,18.83
2019-04-07T08:21:54.093Z,19.48
2019-04-07T08:25:59.107Z,17.23
2019-04-07T08:30:04.942Z,19.67
2019-04-07T08:34:10.939Z,17.60
2019-04-07T08:38:18.635Z,18.47
2019-04-07T08:42:22.646Z,18.17
2019-04-07T08:46:32.202Z,19.50
2019-04-07T08:50:37.459Z,19.47
2019-04-07T08:54:42.204Z,18.50
2019-04-07T08:58:47.817Z,19.93
2019-04-07T09:03:03.674Z,20.67
2019-04-07T09:07:04.102Z,20.80
2019-04-07T09:11:15.885Z,19.97
2019-04-07T09:15:28.259Z,19.90
2019-04-07T09:19:54.506Z,20.27
2019-04-07T09:24:18.195Z,20.27
2019-04-07T09:28:41.749Z,19.17
2019-04-07T09:32:52.808Z,20.97
2019-04-07T09:37:24.372Z,20.68
2019-04-07T09:41:41.630Z,20.23
2019-04-07T09:46:01.621Z,21.42
2019-04-07T09:50:29.485Z,22.07
2019-04-07T09:54:42.680Z,20.05
2019-04-07T09:59:16.979Z,21.10
2019-04-07T10:03:53.283Z,20.70
2019-04-07T10:08:21.975Z,20.48
2019-04-07T10:12:51.529Z,21.10
2019-04-07T10:17:09.438Z,18.67
2019-04-07T10:21:32.434Z,18.50
2019-04-07T10:25:56.200Z,18.67
2019-04-07T10:30:18.896Z,19.27
2019-04-07T10:34:41.108Z,19.67
2019-04-07T10:39:14.270Z,19.90
2019-04-07T10:43:31.798Z,20.87
2019-04-07T10:47:44.963Z,21.65
2019-04-07T10:52:07.357Z,18.97
2019-04-07T10:56:40.039Z,19.70
2019-04-07T11:01:06.513Z,20.13
2019-04-07T11:05:28.941Z,19.40
2019-04-07T11:10:04.833Z,20.33
2019-04-07T11:14:29.300Z,21.23
2019-04-07T11:19:02.006Z,22.93
2019-04-07T11:23:21.880Z,21.80
2019-04-07T11:27:48.461Z,21.97
2019-04-07T11:32:05.577Z,20.13
2019-04-07T11:36:29.787Z,18.43
2019-04-07T11:40:53.549Z,17.80
2019-04-07T11:45:20.731Z,18.50
2019-04-07T11:49:53.957Z,18.73
2019-04-07T11:54:20.671Z,17.57
2019-04-07T11:58:57.252Z,17.70
2019-04-07T12:03:18.255Z,18.00
2019-04-07T12:07:41.211Z,18.10
2019-04-07T12:11:54.804Z,15.97
2019-04-07T12:16:18.510Z,16.57
2019-04-07T12:20:33.877Z,15.73
2019-04-07T12:25:05.445Z,15.13
2019-04-07T12:29:35.271Z,14.83
2019-04-07T12:34:09.451Z,14.60
2019-04-07T12:38:36.813Z,13.63
2019-04-07T12:42:58.041Z,14.73
2019-04-07T12:47:18.182Z,14.80
2019-04-07T12:51:44.568Z,13.80
2019-04-07T12:56:02.613Z,14.13
2019-04-07T13:00:25.377Z,12.87
2019-04-07T13:04:39.691Z,13.00
2019-04-07T13:08:59.503Z,12.87
2019-04-07T13:13:35.269Z,12.70
2019-04-07T13:17:55.246Z,11.37
2019-04-07T13:22:19.334Z,11.97
2019-04-07T13:26:52.088Z,12.07
2019-04-07T13:31:07.979Z,10.93
2019-04-07T13:35:37.664Z,11.37
2019-04-07T13:39:52.358Z,11.33
2019-04-07T13:44:13.044Z,11.03
2019-04-07T13:48:42.454Z,11.40
2019-04-07T13:53:26.980Z,10.87
2019-04-07T13:57:58.116Z,11.00
2019-04-07T14:02:09.925Z,11.33
2019-04-07T14:06:33.983Z,11.13
2019-04-07T14:10:58.358Z,11.63
2019-04-07T14:15:17.897Z,11.87
2019-04-07T14:19:44.471Z,11.10
2019-04-07T14:23:59.377Z,11.77
2019-04-07T14:28:37.834Z,12.67
2019-04-07T14:33:11.112Z,11.90
2019-04-07T14:37:31.846Z,11.97
2019-04-07T14:42:07.282Z,11.83
2019-04-07T14:46:16.208Z,11.13
2019-04-07T14:50:33.137Z,11.07
2019-04-07T14:54:57.948Z,10.70
2019-04-07T14:59:21.991Z,11.23
2019-04-07T15:03:26.664Z,10.67
2019-04-07T15:07:46.998Z,11.70
2019-04-07T15:12:28.933Z,11.53
2019-04-07T15:16:33.999Z,12.93
2019-04-07T15:20:39.144Z,11.07
2019-04-07T15:24:45.348Z,11.93
2019-04-07T15:28:50.364Z,11.17
2019-04-07T15:32:57.867Z,11.87
2019-04-07T15:37:02.204Z,10.27
2019-04-07T15:41:11.815Z,11.03
2019-04-07T15:45:13.364Z,10.23
2019-04-07T15:49:18.429Z,10.60
2019-04-07T15:53:23.164Z,10.77
2019-04-07T15:57:27.706Z,9.90
2019-04-07T16:01:33.603Z,9.13
2019-04-07T16:05:42.774Z,10.90
2019-04-07T16:09:52.821Z,10.13
2019-04-07T16:13:51.978Z,10.37
2019-04-07T16:17:56.784Z,9.23
2019-04-07T16:22:01.430Z,9.57
2019-04-07T16:26:06.644Z,9.80
2019-04-07T16:30:13.804Z,9.47
2019-04-07T16:34:19.141Z,9.30
2019-04-07T16:38:24.172Z,8.23
2019-04-07T16:42:29.756Z,8.17
2019-04-07T16:46:34.412Z,9.27
2019-04-07T16:50:38.983Z,8.60
2019-04-07T16:54:44.704Z,9.30
2019-04-07T16:58:50.226Z,8.50
2019-04-07T17:02:55.757Z,9.23
2019-04-07T17:07:04.427Z,9.10
2019-04-07T17:11:08.067Z,9.50
2019-04-07T17:15:13.529Z,8.93
2019-04-07T17:19:18.294Z,8.87
2019-04-07T17:23:24.202Z,8.53
2019-04-07T17:27:29.308Z,8.93
2019-04-07T17:31:34.718Z,9.27
2019-04-07T17:35:39.445Z,8.63
2019-04-07T17:39:52.192Z,8.70
2019-04-07T17:44:02.914Z,8.90
2019-04-07T17:48:25.612Z,8.63
2019-04-07T17:52:54.806Z,8.40
2019-04-07T17:57:21.089Z,8.47
2019-04-07T18:01:35.809Z,8.40
2019-04-07T18:05:50.794Z,8.83
2019-04-07T18:10:25.398Z,7.40
2019-04-07T18:14:47.290Z,8.60
2019-04-07T18:19:10.941Z,8.50
2019-04-07T18:23:36.010Z,8.87
2019-04-07T18:28:01.037Z,7.80
2019-04-07T18:32:23.253Z,8.40
2019-04-07T18:36:59.918Z,15.93
2019-04-07T18:41:35.732Z,18.80
2019-04-07T18:45:57.815Z,11.23
2019-04-07T18:50:27.542Z,8.03
2019-04-07T18:54:46.410Z,7.87
2019-04-07T18:59:00.359Z,8.07
2019-04-07T19:03:32.852Z,7.73
2019-04-07T19:07:56.153Z,8.57
2019-04-07T19:12:22.714Z,9.03
2019-04-07T19:16:36.177Z,8.93
2019-04-07T19:21:09.914Z,9.50
2019-04-07T19:25:19.307Z,9.43
2019-04-07T19:29:50.158Z,10.03
2019-04-07T19:34:23.689Z,10.60
2019-04-07T19:38:49.283Z,9.40
2019-04-07T19:43:16.649Z,9.83
2019-04-07T19:47:39.566Z,9.70
2019-04-07T19:52:05.436Z,9.90
2019-04-07T19:56:27.305Z,10.90
2019-04-07T20:01:01.586Z,10.57
2019-04-07T20:05:25.368Z,9.93
2019-04-07T20:09:54.817Z,9.80
2019-04-07T20:14:18.398Z,8.93
2019-04-07T20:18:40.580Z,9.30
2019-04-07T20:23:04.600Z,9.47
2019-04-07T20:27:28.469Z,9.80
2019-04-07T20:31:51.965Z,9.47
2019-04-07T20:36:11.872Z,9.10
2019-04-07T20:40:43.913Z,9.57
2019-04-07T20:45:14.239Z,8.67
2019-04-07T20:49:40.311Z,10.07
2019-04-07T20:53:52.241Z,9.07
2019-04-07T20:58:18.770Z,8.83
2019-04-07T21:02:34.069Z,9.10
2019-04-07T21:07:07.680Z,9.10
2019-04-07T21:11:20.286Z,8.67
2019-04-07T21:15:36.906Z,8.87
2019-04-07T21:20:09.415Z,9.63
2019-04-07T21:24:21.143Z,11.07
2019-04-07T21:28:38.027Z,10.63
2019-04-07T21:32:58.227Z,10.43
2019-04-07T21:37:34.101Z,8.93
2019-04-07T21:41:56.313Z,12.30
2019-04-07T21:46:29.174Z,12.50
2019-04-07T21:50:49.773Z,12.43
2019-04-07T21:55:22.201Z,12.00
2019-04-07T21:59:36.291Z,12.03
2019-04-07T22:04:08.885Z,11.43
2019-04-07T22:08:25.540Z,11.50
2019-04-07T22:12:32.729Z,10.43
2019-04-07T22:16:37.291Z,10.83
2019-04-07T22:20:41.869Z,10.93
2019-04-07T22:24:46.436Z,10.70
2019-04-07T22:28:50.996Z,10.40
2019-04-07T22:32:55.610Z,10.00
2019-04-07T22:37:00.248Z,9.17
2019-04-07T22:41:08.078Z,9.97
2019-04-07T22:45:11.701Z,9.73
2019-04-07T22:49:16.425Z,9.73
2019-04-07T22:53:22.454Z,10.23
2019-04-07T22:57:27.264Z,9.53
2019-04-07T23:01:31.832Z,10.07
2019-04-07T23:05:37.222Z,10.37
2019-04-07T23:09:42.090Z,10.37
2019-04-07T23:13:47.238Z,9.90
2019-04-07T23:17:51.928Z,10.13
2019-04-07T23:21:56.504Z,9.70
2019-04-07T23:26:01.942Z,8.90
2019-04-07T23:30:07.405Z,9.70
2019-04-07T23:34:12.304Z,9.57
2019-04-07T23:38:20.205Z,9.73
2019-04-07T23:42:24.776Z,9.97
2019-04-07T23:46:29.708Z,8.90
2019-04-07T23:50:34.285Z,9.57
2019-04-07T23:54:39.724Z,9.33
2019-04-07T23:58:44.409Z,8.90
